Time;durP1;ratioP1;P1;durP2;ratioP2;P2;SDS_P1;SDS_P2;PMS_P1;PMS_P2;Temp;Humidity;BMP_temperature;BMP_pressure;BME280_temperature;BME280_humidity;BME280_pressure;Samples;Min_cycle;Max_cycle;Signal;HPM_P1;HPM_P2
2021/12/11 00:01:42;;;;;;;22.65;11.45;;;5.40;99.90;;;;;;4996147;28;20034;-53
2021/12/11 00:04:14;;;;;;;26.70;13.07;;;5.40;99.90;;;;;;4994239;28;20022;-50
2021/12/11 00:06:45;;;;;;;24.10;11.57;;;5.40;99.90;;;;;;4995420;28;20030;-50
2021/12/11 00:09:25;;;;;;;23.88;10.48;;;5.30;99.90;;;;;;4995319;28;20038;-50
2021/12/11 00:12:16;;;;;;;22.60;10.52;;;5.30;99.90;;;;;;4995316;28;20137;-51
2021/12/11 00:14:51;;;;;;;19.83;10.53;;;5.30;99.90;;;;;;4991097;28;20039;-51
2021/12/11 00:17:25;;;;;;;28.67;11.10;;;5.30;99.90;;;;;;4995130;28;20053;-53
2021/12/11 00:19:51;;;;;;;28.38;11.43;;;5.30;99.90;;;;;;4993834;28;20049;-51
2021/12/11 00:22:21;;;;;;;27.05;12.73;;;5.30;99.90;;;;;;4994722;28;20023;-50
2021/12/11 00:24:47;;;;;;;22.65;11.68;;;5.20;99.90;;;;;;4993823;28;20030;-53
2021/12/11 00:27:16;;;;;;;27.20;12.30;;;5.20;99.90;;;;;;4995347;28;20026;-50
2021/12/11 00:29:43;;;;;;;27.58;11.75;;;5.10;99.90;;;;;;4995159;28;20026;-52
2021/12/11 00:32:12;;;;;;;25.77;12.05;;;5.00;99.90;;;;;;4994902;28;20062;-50
2021/12/11 00:34:43;;;;;;;22.80;10.57;;;5.10;99.90;;;;;;4993621;28;20109;-54
2021/12/11 00:37:12;;;;;;;22.20;11.07;;;5.10;99.90;;;;;;4994808;28;20027;-55
2021/12/11 00:40:01;;;;;;;26.85;11.98;;;5.20;99.90;;;;;;4994585;28;20018;-51
2021/12/11 00:42:34;;;;;;;25.75;12.55;;;5.20;99.90;;;;;;4995079;28;20112;-50
2021/12/11 00:45:07;;;;;;;22.40;10.80;;;5.10;99.90;;;;;;4993954;28;20109;-52
2021/12/11 00:47:33;;;;;;;24.33;12.02;;;5.20;99.90;;;;;;4993070;28;20101;-53
2021/12/11 00:50:09;;;;;;;27.30;12.27;;;5.20;99.90;;;;;;4993676;28;20369;-52
2021/12/11 00:52:42;;;;;;;30.48;12.27;;;5.10;99.90;;;;;;4994819;28;20018;-53
2021/12/11 00:55:19;;;;;;;25.50;12.43;;;5.10;99.90;;;;;;4993589;28;20022;-53
2021/12/11 00:57:47;;;;;;;24.33;11.02;;;5.10;99.90;;;;;;4993065;28;20113;-52
2021/12/11 01:00:19;;;;;;;23.27;12.07;;;5.20;99.90;;;;;;4993151;28;20029;-55
2021/12/11 01:02:49;;;;;;;24.80;12.02;;;5.10;99.90;;;;;;4993483;28;20023;-57
2021/12/11 01:05:15;;;;;;;22.73;10.60;;;5.20;99.90;;;;;;4993630;28;20022;-51
2021/12/11 01:07:40;;;;;;;22.92;10.73;;;5.20;99.90;;;;;;4994286;28;20031;-52
2021/12/11 01:10:13;;;;;;;21.60;10.73;;;5.20;99.90;;;;;;4994314;28;20038;-54
2021/12/11 01:12:51;;;;;;;24.25;11.00;;;5.20;99.90;;;;;;4993302;28;20065;-53
2021/12/11 01:15:32;;;;;;;19.48;9.55;;;5.10;99.90;;;;;;4993812;28;20029;-52
2021/12/11 01:20:55;;;;;;;24.77;10.50;;;5.20;99.90;;;;;;4994258;28;20025;-51
2021/12/11 01:23:45;;;;;;;19.60;8.88;;;5.20;99.90;;;;;;4992864;28;20030;-53
2021/12/11 01:26:15;;;;;;;26.67;10.80;;;5.10;99.90;;;;;;4992947;28;20389;-54
2021/12/11 01:28:41;;;;;;;23.67;10.25;;;5.10;99.90;;;;;;4994024;28;20061;-54
2021/12/11 01:31:12;;;;;;;24.23;10.60;;;5.10;99.90;;;;;;4994316;28;20026;-54
2021/12/11 01:33:38;;;;;;;27.55;11.07;;;5.10;99.90;;;;;;4993145;28;20033;-56
2021/12/11 01:36:05;;;;;;;19.20;10.32;;;5.00;99.90;;;;;;4993462;28;20030;-53
2021/12/11 01:38:31;;;;;;;22.33;10.20;;;5.00;99.90;;;;;;4993739;28;20045;-52
2021/12/11 01:41:01;;;;;;;20.38;9.65;;;5.00;99.90;;;;;;4993862;28;20069;-51
2021/12/11 01:43:30;;;;;;;20.73;10.20;;;5.00;99.90;;;;;;4994292;28;20034;-50
2021/12/11 01:45:59;;;;;;;25.30;11.50;;;4.90;99.90;;;;;;4993233;28;20045;-50
2021/12/11 01:48:31;;;;;;;21.58;10.48;;;4.90;99.90;;;;;;4992563;28;20157;-50
2021/12/11 01:51:06;;;;;;;24.40;11.57;;;5.00;99.90;;;;;;4994084;28;20034;-50
2021/12/11 01:53:39;;;;;;;25.75;11.15;;;4.90;99.90;;;;;;4993847;28;20030;-50
2021/12/11 01:56:16;;;;;;;26.70;11.68;;;4.90;99.90;;;;;;4994069;28;20046;-50
2021/12/11 01:58:55;;;;;;;18.25;9.65;;;4.90;99.90;;;;;;4993930;28;20026;-51
2021/12/11 02:01:30;;;;;;;22.65;9.90;;;4.90;99.90;;;;;;4993825;28;20108;-50
2021/12/11 02:03:58;;;;;;;23.15;11.30;;;4.90;99.90;;;;;;4994267;28;20030;-50
2021/12/11 02:06:28;;;;;;;23.92;10.52;;;4.90;99.90;;;;;;4992431;28;20019;-51
2021/12/11 02:08:54;;;;;;;26.42;10.20;;;4.90;99.90;;;;;;4992354;28;20037;-52
2021/12/11 02:11:24;;;;;;;23.13;11.32;;;4.90;99.90;;;;;;4993668;28;20023;-51
2021/12/11 02:13:59;;;;;;;24.35;11.15;;;4.90;99.90;;;;;;4993802;28;20061;-50
2021/12/11 02:16:43;;;;;;;27.80;12.48;;;4.90;99.90;;;;;;4993783;28;20033;-50
2021/12/11 02:19:14;;;;;;;25.52;13.10;;;4.90;99.90;;;;;;4993531;28;20572;-52
2021/12/11 02:21:46;;;;;;;28.20;12.23;;;4.90;99.90;;;;;;4997673;28;20424;-52
2021/12/11 02:24:16;;;;;;;23.50;11.27;;;4.80;99.90;;;;;;4997332;28;20050;-54
2021/12/11 02:26:42;;;;;;;26.17;11.73;;;4.80;99.90;;;;;;4996224;28;20038;-50
2021/12/11 02:29:17;;;;;;;24.17;11.88;;;4.80;99.90;;;;;;4995924;28;20026;-50
2021/12/11 02:31:50;;;;;;;27.00;11.88;;;4.80;99.90;;;;;;4995913;28;20415;-52
2021/12/11 02:34:45;;;;;;;25.13;11.63;;;4.80;99.90;;;;;;4997535;28;20022;-50
2021/12/11 02:37:24;;;;;;;22.58;11.85;;;4.80;99.90;;;;;;4995604;28;20030;-51
2021/12/11 02:39:58;;;;;;;25.58;11.85;;;4.80;99.90;;;;;;4997038;28;20109;-53
2021/12/11 02:42:29;;;;;;;23.45;12.13;;;4.90;99.90;;;;;;4995766;28;20026;-50
2021/12/11 02:45:18;;;;;;;29.58;12.40;;;4.80;99.90;;;;;;4995685;28;20113;-52
2021/12/11 02:48:09;;;;;;;23.67;10.88;;;4.80;99.90;;;;;;4995468;28;20027;-52
2021/12/11 02:50:47;;;;;;;21.13;10.32;;;4.80;99.90;;;;;;4991707;28;20045;-55
2021/12/11 02:53:29;;;;;;;23.52;11.85;;;4.80;99.90;;;;;;4997199;28;20027;-49
2021/12/11 02:55:58;;;;;;;;;;;4.80;99.90;;;;;;4997281;28;20049;-49
2021/12/11 02:58:28;;;;;;;26.48;11.77;;;4.90;99.90;;;;;;4995615;28;20391;-53
2021/12/11 03:00:57;;;;;;;25.85;10.43;;;5.00;99.90;;;;;;4995638;28;20031;-50
2021/12/11 03:03:32;;;;;;;18.08;9.20;;;5.00;99.90;;;;;;4996951;28;20015;-49
2021/12/11 03:06:12;;;;;;;26.73;10.20;;;5.10;99.90;;;;;;4995407;28;20034;-50
2021/12/11 03:08:40;;;;;;;21.40;10.35;;;5.10;99.90;;;;;;4996501;28;20080;-52
2021/12/11 03:11:11;;;;;;;24.40;10.85;;;5.00;99.90;;;;;;4995754;28;20050;-49
2021/12/11 03:13:39;;;;;;;23.48;10.80;;;5.00;99.90;;;;;;4995207;28;20103;-52
2021/12/11 03:16:08;;;;;;;19.67;10.10;;;5.00;99.90;;;;;;4995481;28;20026;-49
2021/12/11 03:18:35;;;;;;;25.13;9.93;;;5.00;99.90;;;;;;4994868;28;20503;-49
2021/12/11 03:21:02;;;;;;;18.15;9.02;;;4.90;99.90;;;;;;4996236;28;20022;-51
2021/12/11 03:23:28;;;;;;;20.75;9.40;;;4.90;99.90;;;;;;4996237;28;20027;-49
2021/12/11 03:25:53;;;;;;;22.50;9.48;;;4.90;99.90;;;;;;4994963;28;20014;-49
2021/12/11 03:28:21;;;;;;;16.75;9.45;;;4.90;99.90;;;;;;4994834;28;20030;-53
2021/12/11 03:30:56;;;;;;;20.17;8.38;;;4.80;99.90;;;;;;4993835;28;20031;-50
2021/12/11 03:33:26;;;;;;;17.48;8.75;;;4.90;99.90;;;;;;4994856;28;20615;-53
2021/12/11 03:35:55;;;;;;;18.60;9.10;;;4.90;99.90;;;;;;4994755;28;20030;-51
2021/12/11 03:38:22;;;;;;;22.23;9.05;;;4.90;99.90;;;;;;4996068;28;20034;-51
2021/12/11 03:40:49;;;;;;;22.48;9.10;;;4.90;99.90;;;;;;4996044;28;20033;-50
2021/12/11 03:43:19;;;;;;;22.50;9.40;;;4.90;99.90;;;;;;4995413;28;20030;-49
2021/12/11 03:45:49;;;;;;;18.48;8.75;;;4.80;99.90;;;;;;4994509;28;20023;-49
2021/12/11 03:48:25;;;;;;;14.05;8.27;;;4.80;99.90;;;;;;4995668;28;20037;-49
2021/12/11 03:50:52;;;;;;;17.58;8.00;;;4.80;99.90;;;;;;4995768;28;20029;-49
2021/12/11 03:53:18;;;;;;;17.73;8.80;;;4.80;99.90;;;;;;4995777;28;20037;-50
2021/12/11 03:55:58;;;;;;;15.45;8.68;;;4.70;99.90;;;;;;4994525;28;20026;-51
2021/12/11 03:58:25;;;;;;;13.45;7.10;;;4.70;99.90;;;;;;4994856;28;20022;-51
2021/12/11 04:01:06;;;;;;;17.10;8.63;;;4.80;99.90;;;;;;4994339;28;20113;-49
2021/12/11 04:03:36;;;;;;;17.98;7.85;;;4.80;99.90;;;;;;4995793;28;20029;-51
2021/12/11 04:06:08;;;;;;;16.92;7.97;;;4.80;99.90;;;;;;4994461;28;20023;-48
2021/12/11 04:08:40;;;;;;;20.33;8.38;;;4.80;99.90;;;;;;4994099;28;20023;-51
2021/12/11 04:11:09;;;;;;;17.25;7.40;;;4.80;99.90;;;;;;4994889;28;20069;-52
2021/12/11 04:13:35;;;;;;;14.77;8.07;;;4.80;99.90;;;;;;4995276;28;20030;-52
2021/12/11 04:16:04;;;;;;;14.23;6.40;;;4.90;99.90;;;;;;4994331;28;20079;-48
2021/12/11 04:18:29;;;;;;;23.60;9.98;;;4.90;99.90;;;;;;4993863;28;20053;-50
2021/12/11 04:20:55;;;;;;;23.17;8.50;;;4.80;99.90;;;;;;4993896;28;20481;-49
2021/12/11 04:23:22;;;;;;;12.93;6.90;;;4.80;99.90;;;;;;4993908;28;20025;-49
2021/12/11 04:25:51;;;;;;;11.95;6.63;;;4.80;99.90;;;;;;4994024;28;20419;-49
2021/12/11 04:28:18;;;;;;;15.15;6.40;;;4.70;99.90;;;;;;4993957;28;20068;-50
2021/12/11 04:30:48;;;;;;;14.35;6.75;;;4.80;99.90;;;;;;4994587;28;20030;-49
2021/12/11 04:33:14;;;;;;;12.55;6.50;;;4.80;99.90;;;;;;4993754;28;20084;-52
2021/12/11 04:35:42;;;;;;;12.38;5.97;;;4.80;99.90;;;;;;4995286;28;20100;-49
2021/12/11 04:38:09;;;;;;;14.77;6.55;;;4.80;99.90;;;;;;4993510;28;20458;-50
2021/12/11 04:40:38;;;;;;;11.00;5.47;;;4.80;99.90;;;;;;4993495;28;20109;-53
2021/12/11 04:43:15;;;;;;;11.50;6.10;;;4.80;99.90;;;;;;4994426;28;20023;-53
2021/12/11 04:45:43;;;;;;;14.43;6.25;;;4.70;99.90;;;;;;4993529;28;20050;-54
2021/12/11 04:48:23;;;;;;;12.43;6.10;;;4.70;99.90;;;;;;4994683;28;20042;-51
2021/12/11 04:51:03;;;;;;;14.02;6.13;;;4.70;99.90;;;;;;4994579;28;20026;-54
2021/12/11 05:02:12;;;;;;;20.55;8.20;;;4.60;99.90;;;;;;4995092;28;20037;-50
2021/12/11 05:05:07;;;;;;;11.38;5.95;;;4.60;99.90;;;;;;4993441;28;20496;-50
2021/12/11 05:10:21;;;;;;;11.27;6.25;;;4.50;99.90;;;;;;4994710;28;20265;-49
2021/12/11 05:12:50;;;;;;;16.77;7.30;;;4.50;99.90;;;;;;4993068;28;20488;-52
2021/12/11 05:15:20;;;;;;;18.08;7.95;;;4.50;99.90;;;;;;4993799;28;20026;-50
2021/12/11 05:17:47;;;;;;;22.15;9.30;;;4.50;99.90;;;;;;4993993;28;20420;-49
2021/12/11 05:20:18;;;;;;;13.68;6.80;;;4.50;99.90;;;;;;4994225;28;20026;-51
2021/12/11 05:22:44;;;;;;;15.00;7.07;;;4.50;99.90;;;;;;4993015;28;20124;-50
2021/12/11 05:25:11;;;;;;;20.23;8.20;;;4.50;99.90;;;;;;4994659;28;20050;-52
2021/12/11 05:27:38;;;;;;;15.98;7.10;;;4.50;99.90;;;;;;4994276;28;20026;-53
2021/12/11 05:30:08;;;;;;;17.23;7.85;;;4.50;99.90;;;;;;4992739;28;20026;-52
2021/12/11 05:32:34;;;;;;;19.48;7.72;;;4.50;99.90;;;;;;4994308;28;20061;-53
2021/12/11 05:35:00;;;;;;;16.35;6.57;;;4.50;99.90;;;;;;4993908;28;20042;-57
2021/12/11 05:37:26;;;;;;;13.20;7.45;;;4.50;99.90;;;;;;4992961;28;20033;-53
2021/12/11 05:39:53;;;;;;;12.65;6.90;;;4.50;99.90;;;;;;4993854;28;20030;-53
2021/12/11 05:42:19;;;;;;;20.38;6.97;;;4.50;99.90;;;;;;4992651;28;20062;-54
2021/12/11 05:44:44;;;;;;;26.58;10.77;;;4.50;99.90;;;;;;4992672;28;20022;-53
2021/12/11 05:47:11;;;;;;;22.40;9.32;;;4.50;99.90;;;;;;4993125;28;20022;-52
2021/12/11 05:49:37;;;;;;;17.67;7.88;;;4.50;99.90;;;;;;4994472;28;20069;-55
2021/12/11 05:52:07;;;;;;;17.85;7.82;;;4.50;99.90;;;;;;4993163;28;20384;-52
2021/12/11 05:54:33;;;;;;;21.05;8.50;;;4.50;99.90;;;;;;4994840;28;20030;-51
2021/12/11 05:57:03;;;;;;;15.75;7.88;;;4.50;99.90;;;;;;4996545;28;20026;-51
2021/12/11 05:59:30;;;;;;;19.23;8.45;;;4.50;99.90;;;;;;4996749;28;20043;-50
2021/12/11 06:01:58;;;;;;;17.88;9.18;;;4.40;99.90;;;;;;4997231;28;20373;-54
2021/12/11 06:04:31;;;;;;;24.00;10.15;;;4.40;99.90;;;;;;4996395;28;20487;-52
2021/12/11 06:06:58;;;;;;;16.95;9.43;;;4.30;99.90;;;;;;4996438;28;20058;-51
2021/12/11 06:09:26;;;;;;;18.63;9.45;;;4.30;99.90;;;;;;4997614;28;20034;-53
2021/12/11 06:11:59;;;;;;;22.05;10.85;;;4.30;99.90;;;;;;4997432;28;20042;-52
2021/12/11 06:14:25;;;;;;;25.35;11.05;;;4.30;99.90;;;;;;4997523;28;20046;-50
2021/12/11 06:16:54;;;;;;;29.70;12.18;;;4.20;99.90;;;;;;4996283;28;20030;-52
2021/12/11 06:19:22;;;;;;;26.65;13.23;;;4.20;99.90;;;;;;4996493;28;20121;-51
2021/12/11 06:21:52;;;;;;;28.23;13.02;;;4.10;99.90;;;;;;4997447;28;20094;-52
2021/12/11 06:24:19;;;;;;;24.50;12.93;;;4.00;99.90;;;;;;4997155;28;20042;-51
2021/12/11 06:26:45;;;;;;;29.55;11.90;;;3.90;99.90;;;;;;4995979;28;20027;-50
2021/12/11 06:29:11;;;;;;;26.67;12.93;;;3.90;99.90;;;;;;4996000;28;20026;-53
2021/12/11 06:31:36;;;;;;;27.23;11.98;;;3.90;99.90;;;;;;4997277;28;20026;-56
2021/12/11 06:34:03;;;;;;;23.63;11.52;;;3.70;99.90;;;;;;4996922;28;20041;-52
2021/12/11 06:36:29;;;;;;;23.52;11.98;;;3.70;99.90;;;;;;4995899;28;20030;-51
2021/12/11 06:38:59;;;;;;;25.50;12.15;;;3.70;99.90;;;;;;4996915;28;20031;-52
2021/12/11 06:41:29;;;;;;;26.15;12.30;;;3.60;99.90;;;;;;4997283;28;20018;-50
2021/12/11 06:43:55;;;;;;;23.45;12.40;;;3.50;99.90;;;;;;4995701;28;20085;-53
2021/12/11 06:46:21;;;;;;;30.45;13.20;;;3.40;99.90;;;;;;4996952;28;20085;-55
2021/12/11 06:48:47;;;;;;;25.85;12.93;;;3.40;99.90;;;;;;4995326;28;20042;-54
2021/12/11 06:51:12;;;;;;;30.45;14.45;;;3.30;99.90;;;;;;4995586;28;20044;-53
2021/12/11 06:53:42;;;;;;;28.20;12.43;;;3.30;99.90;;;;;;4996819;28;20025;-52
2021/12/11 06:56:10;;;;;;;28.42;12.20;;;3.20;99.90;;;;;;4995531;28;20030;-50
2021/12/11 06:58:36;;;;;;;30.15;14.55;;;3.20;99.90;;;;;;4996618;28;20105;-53
2021/12/11 07:01:04;;;;;;;34.72;15.13;;;3.10;99.90;;;;;;4997037;28;20553;-55
2021/12/11 07:03:30;;;;;;;34.90;15.07;;;3.10;99.90;;;;;;4995697;28;20029;-52
2021/12/11 07:05:56;;;;;;;41.05;17.27;;;3.10;99.90;;;;;;4995717;28;20023;-53
2021/12/11 07:08:23;;;;;;;30.92;13.88;;;3.10;99.90;;;;;;4995982;28;20042;-53
2021/12/11 07:10:49;;;;;;;32.67;13.70;;;3.20;99.90;;;;;;4995303;28;20033;-55
2021/12/11 07:13:15;;;;;;;38.00;16.50;;;3.20;99.90;;;;;;4996406;28;20447;-52
2021/12/11 07:15:42;;;;;;;35.70;18.52;;;3.20;99.90;;;;;;4995095;28;20029;-55
2021/12/11 07:18:08;;;;;;;40.83;20.40;;;3.30;99.90;;;;;;4996429;28;20063;-54
2021/12/11 07:20:33;;;;;;;37.50;18.60;;;3.40;99.90;;;;;;4996305;28;20035;-55
2021/12/11 07:22:59;;;;;;;43.88;17.65;;;3.50;99.90;;;;;;4994994;28;20025;-56
2021/12/11 07:25:48;;;;;;;31.90;14.70;;;3.50;99.90;;;;;;4994967;28;20032;-52
2021/12/11 07:28:15;;;;;;;33.58;14.30;;;3.60;99.90;;;;;;4994841;28;20049;-51
2021/12/11 07:30:45;;;;;;;33.05;14.55;;;3.80;99.90;;;;;;4994839;28;20038;-53
2021/12/11 07:33:12;;;;;;;33.90;15.43;;;3.80;99.90;;;;;;4994823;28;20046;-57
2021/12/11 07:35:40;;;;;;;30.63;14.43;;;3.90;99.90;;;;;;4995077;28;20093;-54
2021/12/11 07:38:07;;;;;;;38.05;17.70;;;4.00;99.90;;;;;;4994639;28;20027;-50
2021/12/11 07:40:37;;;;;;;41.33;16.83;;;3.90;99.90;;;;;;4994724;28;20077;-52
2021/12/11 07:43:05;;;;;;;38.40;16.10;;;4.00;99.90;;;;;;4996136;28;20014;-53
2021/12/11 07:45:33;;;;;;;43.92;17.85;;;4.00;99.90;;;;;;4996217;28;20026;-51
2021/12/11 07:47:59;;;;;;;38.03;17.65;;;4.00;99.90;;;;;;4995616;28;20047;-51
2021/12/11 07:50:25;;;;;;;41.45;18.67;;;4.10;99.90;;;;;;4994992;28;20061;-54
2021/12/11 07:52:51;;;;;;;39.60;17.83;;;4.00;99.90;;;;;;4995604;28;20081;-52
2021/12/11 07:55:17;;;;;;;41.00;16.75;;;4.10;99.90;;;;;;4994659;28;20031;-54
2021/12/11 07:57:43;;;;;;;40.25;16.05;;;4.10;99.90;;;;;;4994153;28;20126;-56
2021/12/11 08:00:13;;;;;;;39.60;16.27;;;4.10;99.90;;;;;;4995537;28;20072;-52
2021/12/11 08:02:38;;;;;;;36.53;15.50;;;4.10;99.90;;;;;;4994151;28;20025;-55
2021/12/11 08:05:05;;;;;;;46.35;18.27;;;4.10;99.90;;;;;;4994363;28;20023;-56
2021/12/11 08:07:31;;;;;;;44.95;17.10;;;4.10;99.90;;;;;;4994886;28;20023;-53
2021/12/11 08:09:57;;;;;;;43.72;18.35;;;4.20;99.90;;;;;;4995501;28;20029;-50
2021/12/11 08:12:22;;;;;;;41.63;17.80;;;4.20;99.90;;;;;;4995391;28;20058;-53
2021/12/11 08:14:50;;;;;;;36.63;17.17;;;4.40;99.90;;;;;;4995264;28;20026;-53
2021/12/11 08:17:17;;;;;;;42.15;16.65;;;4.60;99.90;;;;;;4993541;28;20023;-53
2021/12/11 08:19:44;;;;;;;32.55;16.17;;;4.80;99.90;;;;;;4993832;28;20041;-54
2021/12/11 08:22:10;;;;;;;35.30;15.40;;;5.00;99.90;;;;;;4995429;28;20076;-54
2021/12/11 08:24:38;;;;;;;39.50;16.40;;;5.10;99.90;;;;;;4994123;28;20488;-56
2021/12/11 08:27:24;;;;;;;34.60;15.77;;;5.10;99.90;;;;;;4994586;28;20376;-55
2021/12/11 08:29:52;;;;;;;44.75;16.02;;;5.00;99.90;;;;;;4994751;28;20039;-57
2021/12/11 08:32:20;;;;;;;42.97;21.80;;;4.90;99.90;;;;;;4994977;28;20027;-55
2021/12/11 08:34:46;;;;;;;43.22;18.63;;;4.90;99.90;;;;;;4993668;28;20030;-56
2021/12/11 08:37:16;;;;;;;62.08;30.33;;;4.90;99.90;;;;;;4994860;28;20037;-52
2021/12/11 08:39:43;;;;;;;48.60;20.40;;;4.90;99.90;;;;;;4993406;28;20022;-55
2021/12/11 08:42:12;;;;;;;38.05;16.77;;;4.90;99.90;;;;;;4994700;28;20022;-56
2021/12/11 08:44:48;;;;;;;32.65;14.50;;;5.00;99.90;;;;;;4993477;28;20072;-55
2021/12/11 08:47:14;;;;;;;30.30;14.00;;;5.10;99.90;;;;;;4993531;28;20023;-53
2021/12/11 08:49:41;;;;;;;41.45;15.18;;;5.20;99.90;;;;;;4993634;28;20048;-52
2021/12/11 08:52:12;;;;;;;36.88;14.82;;;5.20;99.90;;;;;;4994846;28;20062;-50
2021/12/11 08:54:39;;;;;;;35.00;15.02;;;5.20;99.90;;;;;;4993295;28;20037;-54
2021/12/11 08:57:07;;;;;;;33.03;12.98;;;5.10;99.90;;;;;;4993327;28;20096;-50
2021/12/11 08:59:36;;;;;;;38.13;15.23;;;5.20;99.90;;;;;;4994224;28;20069;-50
2021/12/11 09:02:08;;;;;;;36.17;14.75;;;5.20;99.90;;;;;;4993337;28;20133;-53
2021/12/11 09:04:46;;;;;;;51.10;19.80;;;5.10;99.90;;;;;;4992989;28;20019;-52
2021/12/11 09:07:23;;;;;;;40.72;16.17;;;5.20;99.90;;;;;;4994416;28;20032;-53
2021/12/11 09:09:57;;;;;;;41.38;15.35;;;5.30;99.90;;;;;;4993277;28;20033;-55
2021/12/11 09:12:34;;;;;;;40.40;15.95;;;5.50;99.90;;;;;;4993462;28;20543;-53
2021/12/11 09:15:03;;;;;;;38.75;15.32;;;5.60;99.90;;;;;;4994101;28;20030;-54
2021/12/11 09:18:01;;;;;;;39.42;14.75;;;5.60;99.90;;;;;;4992928;28;20023;-53
2021/12/11 09:20:39;;;;;;;36.47;13.80;;;5.70;99.90;;;;;;4994428;28;20042;-53
2021/12/11 09:23:25;;;;;;;32.67;14.00;;;5.90;99.90;;;;;;4992868;28;20117;-51
2021/12/11 09:26:00;;;;;;;34.45;14.45;;;5.80;99.90;;;;;;4994017;28;20416;-53
2021/12/11 09:28:34;;;;;;;41.08;13.30;;;5.80;99.90;;;;;;4993131;28;20102;-52
2021/12/11 09:31:13;;;;;;;34.85;13.55;;;5.80;99.90;;;;;;4992827;28;20030;-52
2021/12/11 09:33:47;;;;;;;34.40;13.02;;;6.00;99.90;;;;;;4992806;28;20022;-50
2021/12/11 09:36:22;;;;;;;39.83;14.23;;;6.10;99.90;;;;;;4993976;28;20018;-53
2021/12/11 09:38:53;;;;;;;35.35;14.30;;;6.10;99.90;;;;;;4993939;28;20023;-54
2021/12/11 09:41:21;;;;;;;28.42;12.38;;;6.20;99.90;;;;;;4993945;28;20054;-51
2021/12/11 09:44:12;;;;;;;34.28;11.57;;;6.50;99.90;;;;;;4994130;28;20053;-53
2021/12/11 09:46:46;;;;;;;28.60;12.77;;;7.10;99.90;;;;;;4993511;28;20029;-52
2021/12/11 09:49:19;;;;;;;26.70;10.65;;;7.50;99.90;;;;;;4993768;28;20208;-52
2021/12/11 09:51:47;;;;;;;32.45;12.95;;;7.70;99.90;;;;;;4993941;28;20032;-50
2021/12/11 09:54:17;;;;;;;28.85;12.38;;;7.90;99.90;;;;;;4993910;28;20046;-53
2021/12/11 09:56:49;;;;;;;33.63;13.15;;;8.10;99.90;;;;;;4992564;28;20034;-54
2021/12/11 09:59:16;;;;;;;;;;;8.50;99.90;;;;;;4992871;28;20022;-53
2021/12/11 10:01:45;;;;;;;24.83;11.02;;;8.50;99.90;;;;;;4992515;28;20000;-51
2021/12/11 10:04:28;;;;;;;23.88;10.90;;;8.50;99.90;;;;;;4993758;28;20057;-50
2021/12/11 10:09:28;;;;;;;26.70;10.52;;;8.40;99.90;;;;;;4994009;28;20031;-52
2021/12/11 10:12:04;;;;;;;22.20;9.57;;;8.40;99.90;;;;;;4993889;28;20030;-52
2021/12/11 10:14:43;;;;;;;37.72;14.13;;;8.20;99.90;;;;;;4993709;28;20023;-55
2021/12/11 10:17:22;;;;;;;30.17;11.43;;;8.00;99.90;;;;;;4992634;28;20057;-57
2021/12/11 10:19:51;;;;;;;31.55;11.02;;;7.90;99.90;;;;;;4993628;28;20034;-57
2021/12/11 10:22:31;;;;;;;33.75;12.63;;;8.00;99.90;;;;;;4992439;28;20029;-55
2021/12/11 10:24:57;;;;;;;31.48;11.35;;;8.10;99.90;;;;;;4992383;28;20030;-55
2021/12/11 10:27:29;;;;;;;25.20;10.02;;;8.10;99.90;;;;;;4992446;28;20125;-55
2021/12/11 10:29:56;;;;;;;35.03;13.25;;;8.10;99.90;;;;;;4992797;28;20038;-57
2021/12/11 10:32:27;;;;;;;29.52;11.90;;;8.00;99.90;;;;;;4992351;28;20030;-55
2021/12/11 10:34:57;;;;;;;28.00;10.77;;;7.90;99.90;;;;;;4992321;28;20400;-56
2021/12/11 10:37:29;;;;;;;28.47;12.07;;;7.70;99.90;;;;;;4992259;28;20037;-52
2021/12/11 10:40:00;;;;;;;34.72;12.88;;;7.50;99.90;;;;;;4993065;28;20050;-53
2021/12/11 10:42:27;;;;;;;36.00;14.23;;;7.30;99.90;;;;;;4997020;28;20033;-52
2021/12/11 10:44:56;;;;;;;38.47;12.88;;;7.10;99.90;;;;;;4996960;28;20105;-56
2021/12/11 10:47:33;;;;;;;34.88;12.52;;;7.10;99.90;;;;;;4995907;28;20049;-54
2021/12/11 10:50:03;;;;;;;26.73;11.32;;;7.00;99.90;;;;;;4997024;28;20030;-53
2021/12/11 10:52:31;;;;;;;31.75;12.57;;;7.00;99.90;;;;;;4997047;28;20022;-54
2021/12/11 10:55:00;;;;;;;34.80;12.57;;;7.10;99.90;;;;;;4995505;28;20026;-53
2021/12/11 10:57:27;;;;;;;28.42;10.85;;;7.40;99.90;;;;;;4996701;28;20022;-55
2021/12/11 10:59:56;;;;;;;28.80;10.82;;;7.60;99.90;;;;;;4995672;28;20121;-52
2021/12/11 11:02:27;;;;;;;25.48;10.35;;;7.80;99.90;;;;;;4995445;28;20033;-55
2021/12/11 11:04:58;;;;;;;27.55;10.32;;;7.80;99.90;;;;;;4996905;28;20048;-52
2021/12/11 11:07:26;;;;;;;28.20;11.30;;;7.70;99.90;;;;;;4995992;28;20026;-55
2021/12/11 11:09:56;;;;;;;20.17;8.20;;;7.60;99.90;;;;;;4996441;28;20026;-56
2021/12/11 11:12:24;;;;;;;19.33;8.68;;;7.70;99.90;;;;;;4996707;28;20049;-55
2021/12/11 11:14:53;;;;;;;23.67;9.32;;;7.80;99.90;;;;;;4995146;28;20027;-55
2021/12/11 11:17:21;;;;;;;22.40;8.45;;;7.80;99.90;;;;;;4995091;28;20037;-56
2021/12/11 11:19:49;;;;;;;21.48;9.43;;;7.90;99.90;;;;;;4996147;28;20027;-54
2021/12/11 11:22:19;;;;;;;24.83;10.45;;;8.00;99.90;;;;;;4995105;28;20031;-50
2021/12/11 11:24:49;;;;;;;23.20;9.52;;;8.00;99.90;;;;;;4994989;28;20117;-56
2021/12/11 11:27:17;;;;;;;24.50;9.77;;;8.10;99.90;;;;;;4996567;28;20023;-55
2021/12/11 11:29:44;;;;;;;29.95;11.25;;;7.90;99.90;;;;;;4996001;28;20100;-52
2021/12/11 11:32:31;;;;;;;45.55;14.57;;;7.90;99.90;;;;;;4995714;28;20117;-52
2021/12/11 11:35:07;;;;;;;39.20;13.73;;;7.90;99.90;;;;;;4995731;28;20026;-54
2021/12/11 11:37:35;;;;;;;32.13;11.32;;;7.80;99.90;;;;;;4995963;28;20037;-54
2021/12/11 11:40:04;;;;;;;32.53;11.40;;;7.80;99.90;;;;;;4995839;28;20485;-54
2021/12/11 11:42:30;;;;;;;27.05;10.85;;;7.90;99.90;;;;;;4994899;28;20027;-53
2021/12/11 11:44:55;;;;;;;33.55;14.07;;;7.70;99.90;;;;;;4994667;28;20023;-55
2021/12/11 11:47:22;;;;;;;37.83;15.00;;;7.60;99.90;;;;;;4995797;28;20022;-52
2021/12/11 11:49:49;;;;;;;27.33;11.60;;;7.70;99.90;;;;;;4996447;28;20034;-52
2021/12/11 11:52:19;;;;;;;32.13;12.63;;;7.70;99.90;;;;;;4993901;28;20030;-52
2021/12/11 11:54:51;;;;;;;34.13;12.15;;;7.80;99.90;;;;;;4994485;28;20388;-56
2021/12/11 11:57:31;;;;;;;26.02;10.55;;;7.80;99.90;;;;;;4995319;28;20109;-53
2021/12/11 11:59:59;;;;;;;26.40;11.23;;;7.90;99.90;;;;;;4995860;28;20112;-51
2021/12/11 12:02:28;;;;;;;29.10;11.52;;;8.10;99.90;;;;;;4995572;28;20030;-56
2021/12/11 12:04:57;;;;;;;30.95;13.02;;;8.10;99.90;;;;;;4994724;28;20049;-53
2021/12/11 12:07:28;;;;;;;32.53;11.95;;;7.90;99.90;;;;;;4995801;28;20037;-52
2021/12/11 12:09:57;;;;;;;32.08;11.90;;;7.90;99.90;;;;;;4995610;28;20046;-54
2021/12/11 12:12:23;;;;;;;37.35;13.52;;;7.70;99.90;;;;;;4994406;28;20041;-54
2021/12/11 12:14:51;;;;;;;25.30;11.18;;;7.60;99.90;;;;;;4995363;28;20026;-55
2021/12/11 12:17:19;;;;;;;24.92;10.65;;;7.60;99.90;;;;;;4995708;28;20026;-53
2021/12/11 12:19:47;;;;;;;29.42;12.40;;;7.70;99.90;;;;;;4994496;28;20022;-53
2021/12/11 12:22:16;;;;;;;32.75;13.32;;;7.70;99.90;;;;;;4993818;28;20026;-54
2021/12/11 12:24:44;;;;;;;35.72;12.60;;;7.70;99.90;;;;;;4995092;28;20097;-52
2021/12/11 12:27:18;;;;;;;34.72;13.68;;;7.70;99.90;;;;;;4993590;28;20069;-54
2021/12/11 12:29:45;;;;;;;36.10;13.70;;;7.80;99.90;;;;;;4994920;28;20034;-56
2021/12/11 12:32:21;;;;;;;34.03;11.50;;;7.70;99.90;;;;;;4994044;28;20026;-54
2021/12/11 12:34:49;;;;;;;34.80;11.90;;;7.70;99.90;;;;;;4993564;28;20023;-55
2021/12/11 12:37:15;;;;;;;29.00;11.93;;;7.60;99.90;;;;;;4994751;28;20479;-54
2021/12/11 12:39:47;;;;;;;30.95;12.63;;;7.60;99.90;;;;;;4994568;28;20138;-54
2021/12/11 12:42:37;;;;;;;29.58;13.07;;;7.70;99.90;;;;;;4993660;28;20026;-53
2021/12/11 12:45:11;;;;;;;40.92;14.45;;;7.70;99.90;;;;;;4995089;28;20520;-55
2021/12/11 12:47:42;;;;;;;35.15;12.82;;;7.80;99.90;;;;;;4993416;28;20077;-54
2021/12/11 12:50:22;;;;;;;29.63;12.30;;;7.80;99.90;;;;;;4993531;28;20037;-54
2021/12/11 12:52:48;;;;;;;35.20;12.60;;;7.80;99.90;;;;;;4994240;28;20052;-55
2021/12/11 12:55:39;;;;;;;36.28;13.85;;;7.70;99.90;;;;;;4993666;28;20030;-54
2021/12/11 12:58:11;;;;;;;33.72;13.88;;;7.60;99.90;;;;;;4994580;28;20030;-55
2021/12/11 13:00:39;;;;;;;35.17;12.73;;;7.70;99.90;;;;;;4994484;28;20026;-53
2021/12/11 13:03:17;;;;;;;39.10;14.23;;;7.70;99.90;;;;;;4994248;28;20050;-54
2021/12/11 13:05:47;;;;;;;38.30;15.00;;;7.70;99.90;;;;;;4993205;28;20032;-54
2021/12/11 13:08:18;;;;;;;33.05;14.95;;;7.70;99.90;;;;;;4992995;28;20026;-54
2021/12/11 13:10:52;;;;;;;35.03;13.90;;;7.60;99.90;;;;;;4993149;28;20033;-56
2021/12/11 13:13:21;;;;;;;35.60;13.45;;;7.50;99.90;;;;;;4993090;28;20034;-53
2021/12/11 13:16:00;;;;;;;34.70;14.35;;;7.30;99.90;;;;;;4993105;28;20034;-51